sensor_id;sensor_type;location;lat;lon;timestamp;P1;durP1;ratioP1;P2;durP2;ratioP2
22780;SDS011;11557;50.884;4.322;2023-04-24T00:01:16;28.80;;;16.75;;
22780;SDS011;11557;50.884;4.322;2023-04-24T00:03:42;27.75;;;16.48;;
22780;SDS011;11557;50.884;4.322;2023-04-24T00:06:08;20.42;;;14.93;;
22780;SDS011;11557;50.884;4.322;2023-04-24T00:08:34;28.23;;;16.48;;
22780;SDS011;11557;50.884;4.322;2023-04-24T00:11:00;24.52;;;16.55;;
22780;SDS011;11557;50.884;4.322;2023-04-24T00:13:26;28.02;;;16.00;;
22780;SDS011;11557;50.884;4.322;2023-04-24T00:15:53;26.20;;;16.33;;
22780;SDS011;11557;50.884;4.322;2023-04-24T00:18:19;29.60;;;16.52;;
22780;SDS011;11557;50.884;4.322;2023-04-24T00:20:45;31.55;;;16.98;;
22780;SDS011;11557;50.884;4.322;2023-04-24T00:23:11;23.02;;;15.68;;
22780;SDS011;11557;50.884;4.322;2023-04-24T00:25:37;23.50;;;16.30;;
22780;SDS011;11557;50.884;4.322;2023-04-24T00:28:03;22.88;;;16.08;;
22780;SDS011;11557;50.884;4.322;2023-04-24T00:30:28;35.22;;;16.95;;
22780;SDS011;11557;50.884;4.322;2023-04-24T00:32:54;26.17;;;17.13;;
22780;SDS011;11557;50.884;4.322;2023-04-24T00:35:20;32.60;;;17.52;;
22780;SDS011;11557;50.884;4.322;2023-04-24T00:37:46;24.63;;;16.48;;
22780;SDS011;11557;50.884;4.322;2023-04-24T00:40:11;25.42;;;16.98;;
22780;SDS011;11557;50.884;4.322;2023-04-24T00:42:37;27.08;;;16.65;;
22780;SDS011;11557;50.884;4.322;2023-04-24T00:45:05;30.55;;;17.83;;
22780;SDS011;11557;50.884;4.322;2023-04-24T00:47:31;26.38;;;16.90;;
22780;SDS011;11557;50.884;4.322;2023-04-24T00:49:58;26.08;;;16.92;;
22780;SDS011;11557;50.884;4.322;2023-04-24T00:52:26;29.15;;;17.50;;
22780;SDS011;11557;50.884;4.322;2023-04-24T00:54:53;22.77;;;16.80;;
22780;SDS011;11557;50.884;4.322;2023-04-24T00:57:18;29.52;;;18.23;;
22780;SDS011;11557;50.884;4.322;2023-04-24T00:59:44;30.20;;;17.50;;
22780;SDS011;11557;50.884;4.322;2023-04-24T01:02:11;29.15;;;17.70;;
22780;SDS011;11557;50.884;4.322;2023-04-24T01:04:36;28.27;;;18.00;;
22780;SDS011;11557;50.884;4.322;2023-04-24T01:07:03;27.23;;;18.20;;
22780;SDS011;11557;50.884;4.322;2023-04-24T01:09:34;24.35;;;17.13;;
22780;SDS011;11557;50.884;4.322;2023-04-24T01:12:02;32.53;;;18.58;;
22780;SDS011;11557;50.884;4.322;2023-04-24T01:14:28;31.17;;;18.42;;
22780;SDS011;11557;50.884;4.322;2023-04-24T01:16:55;29.83;;;17.75;;
22780;SDS011;11557;50.884;4.322;2023-04-24T01:19:22;28.10;;;18.10;;
22780;SDS011;11557;50.884;4.322;2023-04-24T01:21:48;27.75;;;18.85;;
22780;SDS011;11557;50.884;4.322;2023-04-24T01:24:17;28.00;;;18.67;;
22780;SDS011;11557;50.884;4.322;2023-04-24T01:26:44;24.75;;;17.77;;
22780;SDS011;11557;50.884;4.322;2023-04-24T01:29:10;29.10;;;18.63;;
22780;SDS011;11557;50.884;4.322;2023-04-24T01:31:36;26.95;;;18.88;;
22780;SDS011;11557;50.884;4.322;2023-04-24T01:34:02;29.60;;;17.92;;
22780;SDS011;11557;50.884;4.322;2023-04-24T01:36:28;28.90;;;18.48;;
22780;SDS011;11557;50.884;4.322;2023-04-24T01:38:56;27.60;;;17.63;;
22780;SDS011;11557;50.884;4.322;2023-04-24T01:41:22;27.80;;;16.35;;
22780;SDS011;11557;50.884;4.322;2023-04-24T01:43:48;26.17;;;16.52;;
22780;SDS011;11557;50.884;4.322;2023-04-24T01:46:14;25.85;;;14.70;;
22780;SDS011;11557;50.884;4.322;2023-04-24T01:48:41;21.88;;;15.02;;
22780;SDS011;11557;50.884;4.322;2023-04-24T01:51:06;20.30;;;14.13;;
22780;SDS011;11557;50.884;4.322;2023-04-24T01:53:32;16.15;;;13.30;;
22780;SDS011;11557;50.884;4.322;2023-04-24T01:55:58;17.80;;;11.98;;
22780;SDS011;11557;50.884;4.322;2023-04-24T01:58:23;20.40;;;14.63;;
22780;SDS011;11557;50.884;4.322;2023-04-24T02:00:49;26.50;;;14.45;;
22780;SDS011;11557;50.884;4.322;2023-04-24T02:03:15;19.42;;;13.73;;
22780;SDS011;11557;50.884;4.322;2023-04-24T02:05:43;19.40;;;14.07;;
22780;SDS011;11557;50.884;4.322;2023-04-24T02:08:10;20.33;;;13.38;;
22780;SDS011;11557;50.884;4.322;2023-04-24T02:10:35;21.67;;;14.23;;
22780;SDS011;11557;50.884;4.322;2023-04-24T02:13:01;23.92;;;15.27;;
22780;SDS011;11557;50.884;4.322;2023-04-24T02:15:27;23.60;;;16.30;;
22780;SDS011;11557;50.884;4.322;2023-04-24T02:17:53;19.77;;;15.35;;
22780;SDS011;11557;50.884;4.322;2023-04-24T02:20:18;22.10;;;15.35;;
22780;SDS011;11557;50.884;4.322;2023-04-24T02:22:44;24.42;;;15.25;;
22780;SDS011;11557;50.884;4.322;2023-04-24T02:25:10;20.05;;;14.68;;
22780;SDS011;11557;50.884;4.322;2023-04-24T02:27:35;20.13;;;14.68;;
22780;SDS011;11557;50.884;4.322;2023-04-24T02:30:01;22.52;;;14.40;;
22780;SDS011;11557;50.884;4.322;2023-04-24T02:32:28;22.67;;;15.20;;
22780;SDS011;11557;50.884;4.322;2023-04-24T02:34:53;19.45;;;13.60;;
22780;SDS011;11557;50.884;4.322;2023-04-24T02:37:19;19.17;;;14.23;;
22780;SDS011;11557;50.884;4.322;2023-04-24T02:39:45;17.23;;;15.27;;
22780;SDS011;11557;50.884;4.322;2023-04-24T02:42:10;22.65;;;14.75;;
22780;SDS011;11557;50.884;4.322;2023-04-24T02:44:36;19.98;;;14.70;;
22780;SDS011;11557;50.884;4.322;2023-04-24T02:47:01;21.70;;;13.55;;
22780;SDS011;11557;50.884;4.322;2023-04-24T02:49:28;21.15;;;15.15;;
22780;SDS011;11557;50.884;4.322;2023-04-24T02:51:54;19.67;;;14.65;;
22780;SDS011;11557;50.884;4.322;2023-04-24T02:54:19;19.92;;;15.13;;
22780;SDS011;11557;50.884;4.322;2023-04-24T02:56:45;22.70;;;14.32;;
22780;SDS011;11557;50.884;4.322;2023-04-24T02:59:10;19.80;;;15.20;;
22780;SDS011;11557;50.884;4.322;2023-04-24T03:01:36;21.42;;;14.73;;
22780;SDS011;11557;50.884;4.322;2023-04-24T03:04:02;21.63;;;15.27;;
22780;SDS011;11557;50.884;4.322;2023-04-24T03:06:27;23.02;;;17.00;;
22780;SDS011;11557;50.884;4.322;2023-04-24T03:08:53;21.17;;;15.43;;
22780;SDS011;11557;50.884;4.322;2023-04-24T03:11:19;21.35;;;14.80;;
22780;SDS011;11557;50.884;4.322;2023-04-24T03:13:45;20.40;;;14.10;;
22780;SDS011;11557;50.884;4.322;2023-04-24T03:16:11;21.05;;;14.43;;
22780;SDS011;11557;50.884;4.322;2023-04-24T03:18:37;21.23;;;14.20;;
22780;SDS011;11557;50.884;4.322;2023-04-24T03:21:02;16.52;;;13.80;;
22780;SDS011;11557;50.884;4.322;2023-04-24T03:23:28;19.08;;;13.95;;
22780;SDS011;11557;50.884;4.322;2023-04-24T03:25:54;22.92;;;14.13;;
22780;SDS011;11557;50.884;4.322;2023-04-24T03:28:20;22.98;;;14.93;;
22780;SDS011;11557;50.884;4.322;2023-04-24T03:30:45;18.23;;;13.13;;
22780;SDS011;11557;50.884;4.322;2023-04-24T03:33:11;19.95;;;13.07;;
22780;SDS011;11557;50.884;4.322;2023-04-24T03:35:37;19.10;;;12.95;;
22780;SDS011;11557;50.884;4.322;2023-04-24T03:38:02;19.20;;;14.43;;
22780;SDS011;11557;50.884;4.322;2023-04-24T03:40:29;16.35;;;12.23;;
22780;SDS011;11557;50.884;4.322;2023-04-24T03:42:55;16.40;;;11.65;;
22780;SDS011;11557;50.884;4.322;2023-04-24T03:45:21;13.98;;;11.38;;
22780;SDS011;11557;50.884;4.322;2023-04-24T03:47:46;15.75;;;11.75;;
22780;SDS011;11557;50.884;4.322;2023-04-24T03:50:12;18.10;;;12.05;;
22780;SDS011;11557;50.884;4.322;2023-04-24T03:52:38;15.65;;;12.18;;
22780;SDS011;11557;50.884;4.322;2023-04-24T03:55:04;17.30;;;12.68;;
22780;SDS011;11557;50.884;4.322;2023-04-24T03:57:31;20.63;;;12.32;;
22780;SDS011;11557;50.884;4.322;2023-04-24T03:59:56;12.57;;;10.90;;
22780;SDS011;11557;50.884;4.322;2023-04-24T04:02:22;14.38;;;11.45;;
22780;SDS011;11557;50.884;4.322;2023-04-24T04:04:48;17.85;;;10.50;;
22780;SDS011;11557;50.884;4.322;2023-04-24T04:07:13;12.75;;;9.90;;
22780;SDS011;11557;50.884;4.322;2023-04-24T04:09:39;11.38;;;9.50;;
22780;SDS011;11557;50.884;4.322;2023-04-24T04:12:05;15.88;;;9.73;;
22780;SDS011;11557;50.884;4.322;2023-04-24T04:14:30;10.05;;;8.50;;
22780;SDS011;11557;50.884;4.322;2023-04-24T04:16:56;13.70;;;10.52;;
22780;SDS011;11557;50.884;4.322;2023-04-24T04:19:22;15.13;;;10.15;;
22780;SDS011;11557;50.884;4.322;2023-04-24T04:21:48;16.08;;;10.25;;
22780;SDS011;11557;50.884;4.322;2023-04-24T04:24:18;13.15;;;10.05;;
22780;SDS011;11557;50.884;4.322;2023-04-24T04:26:45;13.45;;;10.02;;
22780;SDS011;11557;50.884;4.322;2023-04-24T04:29:12;16.15;;;9.82;;
22780;SDS011;11557;50.884;4.322;2023-04-24T04:31:38;13.40;;;9.73;;
22780;SDS011;11557;50.884;4.322;2023-04-24T04:34:04;16.05;;;9.45;;
22780;SDS011;11557;50.884;4.322;2023-04-24T04:36:30;14.13;;;10.45;;
22780;SDS011;11557;50.884;4.322;2023-04-24T04:38:56;12.80;;;8.68;;
22780;SDS011;11557;50.884;4.322;2023-04-24T04:41:24;13.13;;;9.02;;
22780;SDS011;11557;50.884;4.322;2023-04-24T04:43:50;16.05;;;9.90;;
22780;SDS011;11557;50.884;4.322;2023-04-24T04:46:15;14.05;;;9.73;;
22780;SDS011;11557;50.884;4.322;2023-04-24T04:48:41;16.20;;;9.85;;
22780;SDS011;11557;50.884;4.322;2023-04-24T04:51:08;12.23;;;10.40;;
22780;SDS011;11557;50.884;4.322;2023-04-24T04:53:33;16.30;;;11.82;;
22780;SDS011;11557;50.884;4.322;2023-04-24T04:56:01;16.30;;;11.65;;
22780;SDS011;11557;50.884;4.322;2023-04-24T04:58:26;22.15;;;13.35;;
22780;SDS011;11557;50.884;4.322;2023-04-24T05:00:52;20.15;;;12.02;;
22780;SDS011;11557;50.884;4.322;2023-04-24T05:03:18;20.75;;;12.90;;
22780;SDS011;11557;50.884;4.322;2023-04-24T05:05:43;21.25;;;15.13;;
22780;SDS011;11557;50.884;4.322;2023-04-24T05:08:09;26.45;;;14.88;;
22780;SDS011;11557;50.884;4.322;2023-04-24T05:10:35;21.48;;;14.43;;
22780;SDS011;11557;50.884;4.322;2023-04-24T05:13:02;21.20;;;15.38;;
22780;SDS011;11557;50.884;4.322;2023-04-24T05:15:28;23.90;;;15.23;;
22780;SDS011;11557;50.884;4.322;2023-04-24T05:17:55;23.80;;;15.02;;
22780;SDS011;11557;50.884;4.322;2023-04-24T05:20:20;26.92;;;15.20;;
22780;SDS011;11557;50.884;4.322;2023-04-24T05:22:46;25.75;;;15.55;;
22780;SDS011;11557;50.884;4.322;2023-04-24T05:25:12;30.90;;;17.70;;
22780;SDS011;11557;50.884;4.322;2023-04-24T05:27:38;24.77;;;17.33;;
22780;SDS011;11557;50.884;4.322;2023-04-24T05:30:04;24.13;;;16.08;;
22780;SDS011;11557;50.884;4.322;2023-04-24T05:32:30;26.65;;;16.67;;
22780;SDS011;11557;50.884;4.322;2023-04-24T05:34:56;23.55;;;16.10;;
22780;SDS011;11557;50.884;4.322;2023-04-24T05:37:21;23.05;;;14.98;;
22780;SDS011;11557;50.884;4.322;2023-04-24T05:39:47;21.45;;;14.80;;
22780;SDS011;11557;50.884;4.322;2023-04-24T05:42:13;28.95;;;16.40;;
22780;SDS011;11557;50.884;4.322;2023-04-24T05:44:38;29.30;;;16.10;;
22780;SDS011;11557;50.884;4.322;2023-04-24T05:47:04;27.77;;;16.05;;
22780;SDS011;11557;50.884;4.322;2023-04-24T05:49:29;26.73;;;17.50;;
22780;SDS011;11557;50.884;4.322;2023-04-24T05:51:55;25.25;;;16.98;;
22780;SDS011;11557;50.884;4.322;2023-04-24T05:54:22;27.27;;;18.52;;
22780;SDS011;11557;50.884;4.322;2023-04-24T05:56:48;29.33;;;19.00;;
22780;SDS011;11557;50.884;4.322;2023-04-24T05:59:15;25.27;;;17.58;;
22780;SDS011;11557;50.884;4.322;2023-04-24T06:01:41;25.75;;;17.40;;
22780;SDS011;11557;50.884;4.322;2023-04-24T06:04:06;27.10;;;18.17;;
22780;SDS011;11557;50.884;4.322;2023-04-24T06:06:32;26.13;;;15.88;;
22780;SDS011;11557;50.884;4.322;2023-04-24T06:08:58;27.20;;;17.33;;
22780;SDS011;11557;50.884;4.322;2023-04-24T06:11:24;27.60;;;17.55;;
22780;SDS011;11557;50.884;4.322;2023-04-24T06:13:49;30.10;;;16.88;;
22780;SDS011;11557;50.884;4.322;2023-04-24T06:16:15;31.33;;;17.55;;
22780;SDS011;11557;50.884;4.322;2023-04-24T06:18:41;28.48;;;16.90;;
22780;SDS011;11557;50.884;4.322;2023-04-24T06:21:06;37.20;;;20.08;;
22780;SDS011;11557;50.884;4.322;2023-04-24T06:23:32;34.63;;;19.15;;
22780;SDS011;11557;50.884;4.322;2023-04-24T06:25:58;33.10;;;18.88;;
22780;SDS011;11557;50.884;4.322;2023-04-24T06:28:24;31.58;;;18.13;;
22780;SDS011;11557;50.884;4.322;2023-04-24T06:30:50;35.03;;;19.60;;
22780;SDS011;11557;50.884;4.322;2023-04-24T06:33:16;31.65;;;18.98;;
22780;SDS011;11557;50.884;4.322;2023-04-24T06:35:42;34.28;;;19.90;;
22780;SDS011;11557;50.884;4.322;2023-04-24T06:38:07;32.13;;;21.02;;
22780;SDS011;11557;50.884;4.322;2023-04-24T06:40:33;33.28;;;20.50;;
22780;SDS011;11557;50.884;4.322;2023-04-24T06:42:59;33.28;;;22.60;;
22780;SDS011;11557;50.884;4.322;2023-04-24T06:45:25;33.03;;;20.40;;
22780;SDS011;11557;50.884;4.322;2023-04-24T06:47:51;38.60;;;23.20;;
22780;SDS011;11557;50.884;4.322;2023-04-24T06:50:16;34.03;;;21.92;;
22780;SDS011;11557;50.884;4.322;2023-04-24T06:52:42;36.95;;;22.40;;
22780;SDS011;11557;50.884;4.322;2023-04-24T06:55:09;34.42;;;21.77;;
22780;SDS011;11557;50.884;4.322;2023-04-24T06:57:36;41.25;;;22.63;;
22780;SDS011;11557;50.884;4.322;2023-04-24T07:00:02;32.00;;;22.20;;
22780;SDS011;11557;50.884;4.322;2023-04-24T07:02:30;37.42;;;21.27;;
22780;SDS011;11557;50.884;4.322;2023-04-24T07:04:55;40.83;;;22.38;;
22780;SDS011;11557;50.884;4.322;2023-04-24T07:07:22;33.95;;;23.30;;
22780;SDS011;11557;50.884;4.322;2023-04-24T07:09:48;33.83;;;22.25;;
22780;SDS011;11557;50.884;4.322;2023-04-24T07:12:15;39.83;;;22.45;;
22780;SDS011;11557;50.884;4.322;2023-04-24T07:14:42;29.20;;;19.42;;
22780;SDS011;11557;50.884;4.322;2023-04-24T07:17:07;33.38;;;20.10;;
22780;SDS011;11557;50.884;4.322;2023-04-24T07:19:34;32.83;;;19.85;;
22780;SDS011;11557;50.884;4.322;2023-04-24T07:22:02;27.77;;;17.75;;
22780;SDS011;11557;50.884;4.322;2023-04-24T07:24:28;27.60;;;17.42;;
22780;SDS011;11557;50.884;4.322;2023-04-24T07:26:54;21.35;;;15.70;;
22780;SDS011;11557;50.884;4.322;2023-04-24T07:29:20;27.63;;;16.67;;
22780;SDS011;11557;50.884;4.322;2023-04-24T07:31:46;24.02;;;14.93;;
22780;SDS011;11557;50.884;4.322;2023-04-24T07:34:12;28.30;;;15.68;;
22780;SDS011;11557;50.884;4.322;2023-04-24T07:36:37;26.67;;;15.25;;
22780;SDS011;11557;50.884;4.322;2023-04-24T07:39:03;19.75;;;12.15;;
22780;SDS011;11557;50.884;4.322;2023-04-24T07:41:30;20.58;;;12.15;;
22780;SDS011;11557;50.884;4.322;2023-04-24T07:43:55;18.98;;;11.18;;
22780;SDS011;11557;50.884;4.322;2023-04-24T07:46:21;20.60;;;11.07;;
22780;SDS011;11557;50.884;4.322;2023-04-24T07:48:48;17.85;;;11.07;;
22780;SDS011;11557;50.884;4.322;2023-04-24T07:51:14;17.40;;;11.73;;
22780;SDS011;11557;50.884;4.322;2023-04-24T07:53:40;22.77;;;12.73;;
22780;SDS011;11557;50.884;4.322;2023-04-24T07:56:06;24.20;;;13.65;;
22780;SDS011;11557;50.884;4.322;2023-04-24T07:58:32;26.73;;;15.27;;
22780;SDS011;11557;50.884;4.322;2023-04-24T08:00:58;25.85;;;14.15;;
22780;SDS011;11557;50.884;4.322;2023-04-24T08:03:24;22.40;;;12.98;;
22780;SDS011;11557;50.884;4.322;2023-04-24T08:05:49;19.60;;;12.00;;
22780;SDS011;11557;50.884;4.322;2023-04-24T08:08:16;22.42;;;12.93;;
22780;SDS011;11557;50.884;4.322;2023-04-24T08:10:42;22.73;;;11.05;;
22780;SDS011;11557;50.884;4.322;2023-04-24T08:13:07;22.48;;;11.00;;
22780;SDS011;11557;50.884;4.322;2023-04-24T08:15:33;20.55;;;11.05;;
22780;SDS011;11557;50.884;4.322;2023-04-24T08:17:59;16.27;;;9.13;;
22780;SDS011;11557;50.884;4.322;2023-04-24T08:20:25;23.60;;;10.73;;
22780;SDS011;11557;50.884;4.322;2023-04-24T08:22:51;21.48;;;10.80;;
22780;SDS011;11557;50.884;4.322;2023-04-24T08:25:17;17.60;;;10.57;;
22780;SDS011;11557;50.884;4.322;2023-04-24T08:27:44;20.48;;;9.55;;
22780;SDS011;11557;50.884;4.322;2023-04-24T08:30:10;20.92;;;9.43;;
22780;SDS011;11557;50.884;4.322;2023-04-24T08:32:36;22.60;;;9.70;;
22780;SDS011;11557;50.884;4.322;2023-04-24T08:35:02;30.55;;;10.75;;
22780;SDS011;11557;50.884;4.322;2023-04-24T08:37:28;23.85;;;9.57;;
22780;SDS011;11557;50.884;4.322;2023-04-24T08:39:54;23.67;;;9.80;;
22780;SDS011;11557;50.884;4.322;2023-04-24T08:42:20;20.67;;;8.68;;
22780;SDS011;11557;50.884;4.322;2023-04-24T08:44:47;19.58;;;8.65;;
22780;SDS011;11557;50.884;4.322;2023-04-24T08:47:14;19.00;;;7.90;;
22780;SDS011;11557;50.884;4.322;2023-04-24T08:49:40;18.42;;;6.70;;
22780;SDS011;11557;50.884;4.322;2023-04-24T08:52:06;18.40;;;7.53;;
22780;SDS011;11557;50.884;4.322;2023-04-24T08:54:35;19.73;;;7.30;;
22780;SDS011;11557;50.884;4.322;2023-04-24T08:57:02;11.57;;;5.80;;
22780;SDS011;11557;50.884;4.322;2023-04-24T08:59:29;13.15;;;5.93;;
22780;SDS011;11557;50.884;4.322;2023-04-24T09:01:56;14.60;;;5.63;;
22780;SDS011;11557;50.884;4.322;2023-04-24T09:04:22;13.55;;;5.47;;
22780;SDS011;11557;50.884;4.322;2023-04-24T09:06:50;11.73;;;4.90;;
22780;SDS011;11557;50.884;4.322;2023-04-24T09:09:17;11.40;;;4.95;;
22780;SDS011;11557;50.884;4.322;2023-04-24T09:11:43;10.07;;;5.25;;
22780;SDS011;11557;50.884;4.322;2023-04-24T09:14:10;16.90;;;5.25;;
22780;SDS011;11557;50.884;4.322;2023-04-24T09:16:36;12.50;;;5.40;;
22780;SDS011;11557;50.884;4.322;2023-04-24T09:19:02;12.63;;;4.95;;
22780;SDS011;11557;50.884;4.322;2023-04-24T09:21:31;15.75;;;5.00;;
22780;SDS011;11557;50.884;4.322;2023-04-24T09:24:01;17.90;;;5.05;;
22780;SDS011;11557;50.884;4.322;2023-04-24T09:26:34;11.60;;;4.67;;
22780;SDS011;11557;50.884;4.322;2023-04-24T09:29:01;17.17;;;5.22;;
22780;SDS011;11557;50.884;4.322;2023-04-24T09:31:28;13.52;;;4.97;;
22780;SDS011;11557;50.884;4.322;2023-04-24T09:33:55;9.63;;;4.55;;
22780;SDS011;11557;50.884;4.322;2023-04-24T09:36:29;18.90;;;5.80;;
22780;SDS011;11557;50.884;4.322;2023-04-24T09:38:59;12.52;;;4.85;;
22780;SDS011;11557;50.884;4.322;2023-04-24T09:41:26;12.73;;;4.85;;
22780;SDS011;11557;50.884;4.322;2023-04-24T09:43:53;13.70;;;5.38;;
22780;SDS011;11557;50.884;4.322;2023-04-24T09:46:32;12.40;;;5.13;;
22780;SDS011;11557;50.884;4.322;2023-04-24T09:49:02;12.38;;;4.88;;
22780;SDS011;11557;50.884;4.322;2023-04-24T09:51:35;9.20;;;3.90;;
22780;SDS011;11557;50.884;4.322;2023-04-24T09:54:03;10.45;;;4.45;;
22780;SDS011;11557;50.884;4.322;2023-04-24T09:56:32;9.40;;;4.43;;
22780;SDS011;11557;50.884;4.322;2023-04-24T09:59:05;11.57;;;5.53;;
22780;SDS011;11557;50.884;4.322;2023-04-24T10:01:32;8.35;;;4.10;;
22780;SDS011;11557;50.884;4.322;2023-04-24T10:03:58;9.18;;;5.05;;
22780;SDS011;11557;50.884;4.322;2023-04-24T10:06:32;10.27;;;4.25;;
22780;SDS011;11557;50.884;4.322;2023-04-24T10:11:26;9.73;;;3.97;;
22780;SDS011;11557;50.884;4.322;2023-04-24T10:13:52;9.30;;;4.47;;
22780;SDS011;11557;50.884;4.322;2023-04-24T10:16:18;7.97;;;4.03;;
22780;SDS011;11557;50.884;4.322;2023-04-24T10:18:47;9.02;;;4.15;;
22780;SDS011;11557;50.884;4.322;2023-04-24T10:21:14;7.43;;;4.18;;
22780;SDS011;11557;50.884;4.322;2023-04-24T10:23:41;7.45;;;3.80;;
22780;SDS011;11557;50.884;4.322;2023-04-24T10:26:11;7.60;;;3.50;;
22780;SDS011;11557;50.884;4.322;2023-04-24T10:28:43;12.63;;;4.75;;
22780;SDS011;11557;50.884;4.322;2023-04-24T10:31:10;11.82;;;4.75;;
22780;SDS011;11557;50.884;4.322;2023-04-24T10:33:38;12.57;;;4.50;;
22780;SDS011;11557;50.884;4.322;2023-04-24T10:36:06;9.30;;;3.80;;
22780;SDS011;11557;50.884;4.322;2023-04-24T10:38:34;5.63;;;3.63;;
22780;SDS011;11557;50.884;4.322;2023-04-24T10:41:08;8.60;;;3.97;;
22780;SDS011;11557;50.884;4.322;2023-04-24T10:43:35;8.07;;;4.60;;
22780;SDS011;11557;50.884;4.322;2023-04-24T10:46:04;8.30;;;4.60;;
22780;SDS011;11557;50.884;4.322;2023-04-24T10:48:31;9.98;;;4.75;;
22780;SDS011;11557;50.884;4.322;2023-04-24T10:50:57;12.93;;;4.70;;
22780;SDS011;11557;50.884;4.322;2023-04-24T10:53:24;7.93;;;4.63;;
22780;SDS011;11557;50.884;4.322;2023-04-24T10:58:41;9.90;;;5.03;;
22780;SDS011;11557;50.884;4.322;2023-04-24T11:03:54;7.85;;;5.00;;
22780;SDS011;11557;50.884;4.322;2023-04-24T11:06:31;11.55;;;5.13;;
22780;SDS011;11557;50.884;4.322;2023-04-24T11:09:01;10.32;;;4.90;;
22780;SDS011;11557;50.884;4.322;2023-04-24T11:11:28;13.13;;;4.68;;
22780;SDS011;11557;50.884;4.322;2023-04-24T11:27:06;11.85;;;5.40;;
22780;SDS011;11557;50.884;4.322;2023-04-24T11:32:38;10.18;;;5.13;;
22780;SDS011;11557;50.884;4.322;2023-04-24T11:35:15;11.20;;;5.68;;
22780;SDS011;11557;50.884;4.322;2023-04-24T11:37:44;12.02;;;5.10;;
22780;SDS011;11557;50.884;4.322;2023-04-24T11:40:12;12.20;;;5.78;;
22780;SDS011;11557;50.884;4.322;2023-04-24T11:42:44;11.27;;;4.57;;
22780;SDS011;11557;50.884;4.322;2023-04-24T11:45:15;10.98;;;5.22;;
22780;SDS011;11557;50.884;4.322;2023-04-24T11:47:47;8.57;;;4.85;;
22780;SDS011;11557;50.884;4.322;2023-04-24T11:50:16;14.05;;;6.28;;
22780;SDS011;11557;50.884;4.322;2023-04-24T11:52:44;12.13;;;6.00;;
22780;SDS011;11557;50.884;4.322;2023-04-24T11:57:41;10.00;;;5.35;;
22780;SDS011;11557;50.884;4.322;2023-04-24T12:00:14;8.95;;;5.82;;
22780;SDS011;11557;50.884;4.322;2023-04-24T12:02:45;14.15;;;5.72;;
22780;SDS011;11557;50.884;4.322;2023-04-24T12:05:32;8.75;;;5.05;;
22780;SDS011;11557;50.884;4.322;2023-04-24T12:07:57;9.02;;;4.90;;
22780;SDS011;11557;50.884;4.322;2023-04-24T12:10:23;8.23;;;4.80;;
22780;SDS011;11557;50.884;4.322;2023-04-24T12:12:50;6.85;;;4.40;;
22780;SDS011;11557;50.884;4.322;2023-04-24T12:15:17;7.38;;;4.95;;
22780;SDS011;11557;50.884;4.322;2023-04-24T12:17:44;7.53;;;4.85;;
22780;SDS011;11557;50.884;4.322;2023-04-24T12:20:10;8.95;;;4.97;;
22780;SDS011;11557;50.884;4.322;2023-04-24T12:25:22;9.80;;;4.60;;
22780;SDS011;11557;50.884;4.322;2023-04-24T12:28:08;7.45;;;4.00;;
22780;SDS011;11557;50.884;4.322;2023-04-24T12:30:40;9.20;;;4.90;;
22780;SDS011;11557;50.884;4.322;2023-04-24T12:33:10;8.15;;;4.68;;
22780;SDS011;11557;50.884;4.322;2023-04-24T12:35:36;8.48;;;4.32;;
22780;SDS011;11557;50.884;4.322;2023-04-24T12:38:05;14.15;;;5.00;;
22780;SDS011;11557;50.884;4.322;2023-04-24T12:40:33;7.93;;;5.20;;
22780;SDS011;11557;50.884;4.322;2023-04-24T12:42:58;9.63;;;4.85;;
22780;SDS011;11557;50.884;4.322;2023-04-24T12:45:24;7.78;;;4.47;;
22780;SDS011;11557;50.884;4.322;2023-04-24T12:47:50;10.45;;;4.55;;
22780;SDS011;11557;50.884;4.322;2023-04-24T12:50:16;7.75;;;4.05;;
22780;SDS011;11557;50.884;4.322;2023-04-24T12:52:42;8.70;;;3.97;;
22780;SDS011;11557;50.884;4.322;2023-04-24T12:55:08;7.05;;;3.60;;
22780;SDS011;11557;50.884;4.322;2023-04-24T12:57:36;12.60;;;4.00;;
22780;SDS011;11557;50.884;4.322;2023-04-24T13:00:03;5.78;;;3.42;;
22780;SDS011;11557;50.884;4.322;2023-04-24T13:02:29;7.05;;;4.10;;
22780;SDS011;11557;50.884;4.322;2023-04-24T13:04:56;6.32;;;4.05;;
22780;SDS011;11557;50.884;4.322;2023-04-24T13:07:25;8.95;;;3.55;;
22780;SDS011;11557;50.884;4.322;2023-04-24T13:09:52;8.20;;;3.80;;
22780;SDS011;11557;50.884;4.322;2023-04-24T13:12:19;9.98;;;3.80;;
22780;SDS011;11557;50.884;4.322;2023-04-24T13:14:45;9.77;;;4.13;;
22780;SDS011;11557;50.884;4.322;2023-04-24T13:17:11;7.60;;;3.28;;
22780;SDS011;11557;50.884;4.322;2023-04-24T13:19:39;8.68;;;3.10;;
22780;SDS011;11557;50.884;4.322;2023-04-24T13:22:06;8.48;;;3.63;;
22780;SDS011;11557;50.884;4.322;2023-04-24T13:24:32;6.57;;;3.05;;
22780;SDS011;11557;50.884;4.322;2023-04-24T13:26:58;7.18;;;2.88;;
22780;SDS011;11557;50.884;4.322;2023-04-24T13:29:25;4.18;;;2.60;;
22780;SDS011;11557;50.884;4.322;2023-04-24T13:31:51;7.55;;;3.08;;
22780;SDS011;11557;50.884;4.322;2023-04-24T13:34:19;7.68;;;3.17;;
22780;SDS011;11557;50.884;4.322;2023-04-24T13:36:45;5.60;;;2.58;;
22780;SDS011;11557;50.884;4.322;2023-04-24T13:39:10;9.07;;;3.00;;
22780;SDS011;11557;50.884;4.322;2023-04-24T13:41:36;9.82;;;2.80;;
22780;SDS011;11557;50.884;4.322;2023-04-24T13:44:02;10.85;;;3.03;;
22780;SDS011;11557;50.884;4.322;2023-04-24T13:46:29;6.40;;;2.95;;
22780;SDS011;11557;50.884;4.322;2023-04-24T13:48:56;5.57;;;2.63;;
22780;SDS011;11557;50.884;4.322;2023-04-24T13:51:23;7.38;;;2.80;;
22780;SDS011;11557;50.884;4.322;2023-04-24T13:53:52;4.10;;;2.08;;
22780;SDS011;11557;50.884;4.322;2023-04-24T13:56:18;5.63;;;2.20;;
22780;SDS011;11557;50.884;4.322;2023-04-24T13:58:43;3.80;;;1.77;;
22780;SDS011;11557;50.884;4.322;2023-04-24T14:01:09;3.97;;;1.95;;
22780;SDS011;11557;50.884;4.322;2023-04-24T14:03:36;5.32;;;2.15;;
22780;SDS011;11557;50.884;4.322;2023-04-24T14:06:02;4.22;;;1.85;;
22780;SDS011;11557;50.884;4.322;2023-04-24T14:08:28;7.70;;;2.20;;
22780;SDS011;11557;50.884;4.322;2023-04-24T14:10:54;6.88;;;2.58;;
22780;SDS011;11557;50.884;4.322;2023-04-24T14:13:20;5.38;;;2.60;;
22780;SDS011;11557;50.884;4.322;2023-04-24T14:15:46;6.38;;;2.60;;
22780;SDS011;11557;50.884;4.322;2023-04-24T14:18:12;5.28;;;2.63;;
22780;SDS011;11557;50.884;4.322;2023-04-24T14:20:37;6.75;;;2.63;;
22780;SDS011;11557;50.884;4.322;2023-04-24T14:23:03;6.57;;;2.58;;
22780;SDS011;11557;50.884;4.322;2023-04-24T14:25:29;10.05;;;2.58;;
22780;SDS011;11557;50.884;4.322;2023-04-24T14:27:55;10.15;;;2.35;;
22780;SDS011;11557;50.884;4.322;2023-04-24T14:30:21;4.03;;;2.03;;
22780;SDS011;11557;50.884;4.322;2023-04-24T14:32:47;9.65;;;2.15;;
22780;SDS011;11557;50.884;4.322;2023-04-24T14:35:13;4.90;;;2.30;;
22780;SDS011;11557;50.884;4.322;2023-04-24T14:37:39;6.80;;;2.65;;
22780;SDS011;11557;50.884;4.322;2023-04-24T14:40:06;8.18;;;2.53;;
22780;SDS011;11557;50.884;4.322;2023-04-24T14:42:33;4.97;;;2.03;;
22780;SDS011;11557;50.884;4.322;2023-04-24T14:44:59;5.85;;;2.50;;
22780;SDS011;11557;50.884;4.322;2023-04-24T14:47:25;6.10;;;1.92;;
22780;SDS011;11557;50.884;4.322;2023-04-24T14:49:50;7.97;;;2.45;;
22780;SDS011;11557;50.884;4.322;2023-04-24T14:52:17;7.68;;;2.20;;
22780;SDS011;11557;50.884;4.322;2023-04-24T14:54:42;8.20;;;1.98;;
22780;SDS011;11557;50.884;4.322;2023-04-24T14:57:09;5.47;;;2.15;;